Airfield :
LOGIN :

Register | Disclaimer

   EN    FR    IT 

 










Legend :    VFR   Marginal VFR   IFR   Intensive IFR   Very Intensive IFR
Visi :
Ceiling :
>= 8 km
>= 3000ft
5 to 8 km
1000 to 3000 ft
1500m to 5 km
500 to 1000 ft
800 to 1500m
200 to 500 ft
< 800m
< 200 ft
Symbols :   Thunderstorms  Fog  Heavy snow  Heavy precipitations  Wind > 20 kt
SIGMETs :     Misc.  Thunderstorms  Icing  Turbulence  Mountain Waves  Volcanic Ashes






- Airport Elevation : 156 ft
- IATA code : OMO


LQMO - Mostar

CURRENT METAR :
  • 061500Z VRB02KT 9999 SCT045 BKN055 09/03 Q1022

EXPIRED METARs :
  • 061400Z VRB01KT 9999 SCT040 BKN055 09/02 Q1023
  • 061300Z 16003KT 9999 SCT045 BKN055 10/02 Q1023

TAF TAF LQMO
Valid from the 06 at 12:00 until the 07 at 12:00 UTC


061100Z 0612/0712 15005KT 9999 BKN050 TX12/0613Z TN06/0706Z
TEMPO 0613/0706 4000 RA
PROB40
TEMPO 0622/0703 4000 SHRA FEW010 FEW035TCU BKN040



MET'MAP, your aeronautical weather chart ! - Copyright ORBIFLY December 2007 - Disclaimer

ORBIFLY MET'MAP TEAM :

Programming & Development : Alexandra Zaïnal
Concept & original design : Baudouin d'Aumeries
Assistance for programming : Marc-Olivier Méhu
Technical & hardware support : Manuel Goepfert

Contact : metmap@orbifly.com




SOURCES & CREDITS :

   NOAA